Time;durP1;ratioP1;P1;durP2;ratioP2;P2;SDS_P1;SDS_P2;PMS_P1;PMS_P2;Temp;Humidity;BMP_temperature;BMP_pressure;BME280_temperature;BME280_humidity;BME280_pressure;Samples;Min_cycle;Max_cycle;Signal;HPM_P1;HPM_P2
2021/06/07 00:01:39;;;;;;;17.90;15.82;;;;;;;15.06;94.61;101909.44;4956037;28;20050;-88
2021/06/07 00:04:06;;;;;;;17.10;14.63;;;;;;;15.08;95.00;101911.97;4979567;28;20050;-87
2021/06/07 00:06:31;;;;;;;18.10;14.65;;;;;;;15.05;94.98;101910.44;4977762;28;20096;-85
2021/06/07 00:08:58;;;;;;;19.38;15.40;;;;;;;15.00;95.13;101918.22;4982750;28;20070;-86
2021/06/07 00:11:24;;;;;;;20.00;15.90;;;;;;;15.09;94.93;101906.38;4978800;28;20551;-86
2021/06/07 00:13:50;;;;;;;20.67;16.20;;;;;;;14.99;95.25;101913.81;4988929;28;20038;-86
2021/06/07 00:16:16;;;;;;;17.98;14.20;;;;;;;15.00;95.14;101914.66;4994210;28;20050;-85
2021/06/07 00:18:42;;;;;;;18.35;14.32;;;;;;;14.85;95.24;101917.16;4977251;28;20378;-85
2021/06/07 00:21:14;;;;;;;18.10;13.50;;;;;;;14.85;95.15;101918.00;4981754;28;20444;-89
2021/06/07 00:23:41;;;;;;;19.10;13.57;;;;;;;14.87;94.94;101915.13;4982857;28;20049;-85
2021/06/07 00:26:07;;;;;;;15.18;13.57;;;;;;;14.95;94.71;101920.56;4982623;28;20099;-85
2021/06/07 00:28:33;;;;;;;16.50;14.45;;;;;;;14.83;95.21;101913.78;4970322;28;20405;-86
2021/06/07 00:31:00;;;;;;;16.83;14.55;;;;;;;14.67;95.44;101914.56;4983413;28;20042;-86
2021/06/07 00:33:25;;;;;;;18.65;14.85;;;;;;;14.69;95.83;101912.56;4985505;28;20046;-89
2021/06/07 00:35:51;;;;;;;17.73;14.50;;;;;;;14.77;95.32;101917.16;4968301;28;20039;-87
2021/06/07 00:38:16;;;;;;;16.83;13.90;;;;;;;14.56;95.44;101920.28;4982446;28;20042;-86
2021/06/07 00:40:42;;;;;;;18.58;12.15;;;;;;;14.52;95.54;101916.22;4980966;28;20600;-87
2021/06/07 00:43:07;;;;;;;17.45;13.55;;;;;;;14.52;95.89;101919.75;4974255;28;20050;-87
2021/06/07 00:45:35;;;;;;;16.23;12.80;;;;;;;14.54;96.09;101919.59;4985290;28;20094;-86
2021/06/07 00:48:03;;;;;;;18.30;13.13;;;;;;;14.49;96.02;101922.75;4984019;28;20055;-88
2021/06/07 00:50:45;;;;;;;13.50;12.07;;;;;;;14.45;95.84;101930.34;4986055;28;20462;-85
2021/06/07 00:53:13;;;;;;;17.40;13.68;;;;;;;14.47;95.93;101918.50;4982847;28;20066;-86
2021/06/07 00:55:50;;;;;;;17.98;14.07;;;;;;;14.50;95.47;101916.34;4985580;28;20049;-89
2021/06/07 00:58:19;;;;;;;17.50;14.38;;;;;;;14.37;96.11;101924.88;4985786;28;20065;-87
2021/06/07 01:00:45;;;;;;;17.30;13.98;;;;;;;14.16;96.95;101919.91;4983705;28;20129;-86
2021/06/07 01:03:12;;;;;;;19.80;14.80;;;;;;;14.09;97.20;101921.53;4980361;28;20188;-86
2021/06/07 01:05:38;;;;;;;20.30;15.80;;;;;;;14.13;97.35;101919.38;4980383;28;20069;-89
2021/06/07 01:08:04;;;;;;;19.95;14.65;;;;;;;14.05;97.23;101922.88;4975036;28;20485;-86
2021/06/07 01:10:31;;;;;;;18.65;14.98;;;;;;;13.98;97.13;101921.78;4968322;28;20042;-86
2021/06/07 01:12:59;;;;;;;19.77;14.82;;;;;;;13.91;97.53;101912.66;4975588;28;20528;-87
2021/06/07 01:15:24;;;;;;;19.63;16.30;;;;;;;13.89;97.40;101911.97;4973922;28;20046;-87
2021/06/07 01:17:50;;;;;;;18.67;15.50;;;;;;;13.79;98.48;101919.34;4970378;28;20498;-90
2021/06/07 01:20:18;;;;;;;20.80;16.58;;;;;;;13.81;98.36;101918.16;4967586;28;20046;-86
2021/06/07 01:22:45;;;;;;;21.13;16.83;;;;;;;13.69;98.84;101917.56;4972148;28;20069;-85
2021/06/07 01:25:23;;;;;;;20.48;17.02;;;;;;;13.67;98.91;101910.66;4985720;28;20049;-87
2021/06/07 01:27:50;;;;;;;21.98;16.05;;;;;;;13.61;99.07;101913.94;4988258;28;20050;-86
2021/06/07 01:30:18;;;;;;;20.00;16.40;;;;;;;13.54;99.19;101905.66;4977770;28;20042;-87
2021/06/07 01:32:44;;;;;;;19.80;15.93;;;;;;;13.49;99.96;101910.66;4976656;28;20567;-85
2021/06/07 01:35:11;;;;;;;22.20;16.30;;;;;;;13.34;100.00;101910.38;4978300;28;20649;-85
2021/06/07 01:37:38;;;;;;;18.73;16.45;;;;;;;13.31;100.00;101913.38;4981225;28;20181;-87
2021/06/07 01:40:06;;;;;;;21.63;17.10;;;;;;;13.19;100.00;101915.44;4982936;28;20081;-86
2021/06/07 01:42:32;;;;;;;20.02;15.98;;;;;;;13.27;100.00;101912.84;4976194;28;20072;-85
2021/06/07 01:44:58;;;;;;;25.48;18.50;;;;;;;13.31;100.00;101908.81;4982210;28;20382;-88
2021/06/07 01:47:23;;;;;;;21.55;18.95;;;;;;;13.28;100.00;101908.28;4963961;28;20182;-88
2021/06/07 01:49:49;;;;;;;22.88;18.73;;;;;;;13.18;100.00;101913.75;4979367;28;20050;-87
2021/06/07 01:52:14;;;;;;;25.33;18.73;;;;;;;13.22;100.00;101908.88;4978365;28;20579;-89
2021/06/07 01:54:40;;;;;;;23.00;18.85;;;;;;;13.17;100.00;101914.72;4971694;28;20038;-85
2021/06/07 01:57:06;;;;;;;24.08;19.33;;;;;;;13.03;100.00;101912.56;4955705;28;20088;-85
2021/06/07 01:59:31;;;;;;;24.25;19.90;;;;;;;13.03;100.00;101907.19;4984857;28;20050;-87
2021/06/07 02:01:59;;;;;;;26.67;20.98;;;;;;;13.09;100.00;101906.59;4976876;28;20053;-85
2021/06/07 02:04:25;;;;;;;24.08;20.45;;;;;;;13.03;100.00;101908.06;4983010;28;20107;-85
2021/06/07 02:06:50;;;;;;;28.13;21.58;;;;;;;13.02;100.00;101906.34;4985271;28;20053;-86
2021/06/07 02:09:17;;;;;;;27.60;21.90;;;;;;;12.98;100.00;101909.50;4974477;28;20435;-86
2021/06/07 02:11:42;;;;;;;27.38;21.60;;;;;;;12.91;100.00;101911.09;4990942;28;20576;-86
2021/06/07 02:14:08;;;;;;;28.70;22.20;;;;;;;12.91;100.00;101919.19;4981480;28;20045;-85
2021/06/07 02:16:36;;;;;;;27.08;22.58;;;;;;;12.84;100.00;101908.19;4972240;28;20059;-87
2021/06/07 02:19:06;;;;;;;27.42;22.25;;;;;;;12.76;100.00;101906.22;4978587;28;20058;-87
2021/06/07 02:21:31;;;;;;;24.95;22.13;;;;;;;12.74;100.00;101912.75;4979406;28;20058;-86
2021/06/07 02:23:57;;;;;;;30.90;22.33;;;;;;;12.69;100.00;101906.97;4984924;28;20046;-86
2021/06/07 02:26:24;;;;;;;27.92;22.00;;;;;;;12.70;100.00;101901.44;4989691;28;20054;-86
2021/06/07 02:28:56;;;;;;;27.73;22.75;;;;;;;12.66;100.00;101905.47;4988953;28;20058;-90
2021/06/07 02:31:22;;;;;;;28.02;23.08;;;;;;;12.62;100.00;101904.88;4978666;28;20054;-86
2021/06/07 02:33:50;;;;;;;29.33;23.90;;;;;;;12.57;100.00;101906.34;4976414;28;20054;-86
2021/06/07 02:36:15;;;;;;;30.33;24.10;;;;;;;12.56;100.00;101907.34;4984795;28;20050;-86
2021/06/07 02:38:40;;;;;;;31.88;24.27;;;;;;;12.53;100.00;101908.50;4970917;28;20560;-88
2021/06/07 02:41:06;;;;;;;28.77;23.80;;;;;;;12.52;100.00;101911.34;4983200;28;20421;-85
2021/06/07 02:43:32;;;;;;;29.27;24.48;;;;;;;12.51;100.00;101906.94;4982068;28;20046;-85
2021/06/07 02:45:58;;;;;;;31.27;24.08;;;;;;;12.50;100.00;101911.47;4977009;28;20052;-85
2021/06/07 02:48:23;;;;;;;33.55;23.98;;;;;;;12.49;100.00;101908.97;4960403;28;20422;-86
2021/06/07 02:50:49;;;;;;;28.35;23.92;;;;;;;12.40;100.00;101898.09;4976662;28;20074;-86
2021/06/07 02:53:16;;;;;;;28.38;24.35;;;;;;;12.42;100.00;101904.16;4977093;28;20057;-86
2021/06/07 02:55:53;;;;;;;31.65;24.38;;;;;;;12.35;100.00;101903.06;4973880;28;20058;-85
2021/06/07 02:58:21;;;;;;;33.80;25.95;;;;;;;12.37;100.00;101901.06;4979018;28;20054;-87
2021/06/07 03:00:49;;;;;;;28.88;24.83;;;;;;;12.26;100.00;101908.50;4984601;28;20057;-89
2021/06/07 03:03:15;;;;;;;30.40;24.50;;;;;;;12.30;100.00;101907.19;4980227;28;20436;-86
2021/06/07 03:05:42;;;;;;;31.52;24.70;;;;;;;12.31;100.00;101912.41;4973728;28;20406;-86
2021/06/07 03:08:09;;;;;;;30.30;24.20;;;;;;;12.29;100.00;101909.03;4979999;28;20088;-86
2021/06/07 03:10:35;;;;;;;29.35;24.40;;;;;;;12.25;100.00;101910.31;4985308;28;20069;-85
2021/06/07 03:13:00;;;;;;;32.00;24.60;;;;;;;12.19;100.00;101917.13;4978048;28;20145;-85
2021/06/07 03:15:27;;;;;;;28.40;24.75;;;;;;;12.19;100.00;101913.59;4979714;28;20046;-85
2021/06/07 03:17:53;;;;;;;31.55;25.38;;;;;;;12.19;100.00;101918.97;4987815;28;20045;-85
2021/06/07 03:20:23;;;;;;;28.73;24.40;;;;;;;12.19;100.00;101913.59;4982960;28;20046;-85
2021/06/07 03:22:48;;;;;;;31.15;25.05;;;;;;;12.16;100.00;101913.91;4977296;28;20039;-86
2021/06/07 03:25:14;;;;;;;29.65;23.58;;;;;;;12.13;100.00;101914.19;4976509;28;20070;-86
2021/06/07 03:27:40;;;;;;;31.88;23.95;;;;;;;12.06;100.00;101915.78;4967526;28;20047;-85
2021/06/07 03:30:08;;;;;;;30.85;22.63;;;;;;;12.03;100.00;101919.63;4978675;28;20047;-86
2021/06/07 03:32:34;;;;;;;29.60;24.33;;;;;;;12.00;100.00;101911.84;4964140;28;20057;-85
2021/06/07 03:34:59;;;;;;;30.73;23.55;;;;;;;11.98;100.00;101910.28;4983272;28;20046;-86
2021/06/07 03:37:25;;;;;;;28.23;22.77;;;;;;;11.99;100.00;101907.44;4986320;28;20042;-89
2021/06/07 03:39:51;;;;;;;28.15;23.15;;;;;;;11.99;100.00;101912.81;4980680;28;20058;-84
2021/06/07 03:42:16;;;;;;;29.08;24.67;;;;;;;11.98;100.00;101916.50;4978564;28;20054;-85
2021/06/07 03:44:42;;;;;;;30.10;24.80;;;;;;;11.98;100.00;101912.97;4978198;28;20059;-85
2021/06/07 03:47:07;;;;;;;31.90;24.23;;;;;;;12.00;100.00;101916.34;4979272;28;20057;-85
2021/06/07 03:49:33;;;;;;;31.15;24.80;;;;;;;12.00;100.00;101913.66;4972178;28;20081;-85
2021/06/07 03:51:58;;;;;;;33.67;24.77;;;;;;;11.98;100.00;101918.38;4980498;28;20061;-86
2021/06/07 03:54:24;;;;;;;29.40;23.80;;;;;;;11.99;100.00;101911.97;4986310;28;20038;-85
2021/06/07 03:56:49;;;;;;;28.40;24.85;;;;;;;11.98;100.00;101915.66;4968371;28;20125;-85
2021/06/07 03:59:15;;;;;;;29.45;23.88;;;;;;;12.03;100.00;101921.47;4975218;28;20051;-86
2021/06/07 04:01:41;;;;;;;33.55;24.70;;;;;;;12.01;100.00;101926.13;4983875;28;20074;-86
2021/06/07 04:04:09;;;;;;;30.23;23.73;;;;;;;12.01;100.00;101923.44;4979305;28;20611;-89
2021/06/07 04:06:34;;;;;;;32.70;23.95;;;;;;;12.01;100.00;101915.38;4978105;28;20055;-87
2021/06/07 04:09:02;;;;;;;30.27;23.60;;;;;;;11.99;100.00;101923.56;4964194;28;20057;-85
2021/06/07 04:11:27;;;;;;;27.58;23.55;;;;;;;12.03;100.00;101922.31;4958485;28;20519;-86
2021/06/07 04:13:53;;;;;;;28.38;24.00;;;;;;;12.06;100.00;101918.47;4985844;28;20074;-86
2021/06/07 04:16:19;;;;;;;29.60;23.77;;;;;;;11.98;100.00;101921.06;4978547;28;20062;-89
2021/06/07 04:18:44;;;;;;;28.70;22.67;;;;;;;12.06;100.00;101926.56;4979278;28;20186;-86
2021/06/07 04:21:10;;;;;;;28.08;23.30;;;;;;;12.08;100.00;101929.94;4975416;28;20042;-88
2021/06/07 04:23:36;;;;;;;28.73;22.92;;;;;;;12.07;100.00;101925.56;4986474;28;20046;-87
2021/06/07 04:26:01;;;;;;;27.52;23.20;;;;;;;12.14;100.00;101934.72;4977555;28;20489;-85
2021/06/07 04:28:27;;;;;;;27.65;22.38;;;;;;;12.15;100.00;101933.75;4979163;28;20038;-88
2021/06/07 04:30:52;;;;;;;25.05;20.73;;;;;;;12.05;100.00;101935.59;4972725;28;20463;-86
2021/06/07 04:33:17;;;;;;;25.17;20.75;;;;;;;12.07;100.00;101936.31;4981780;28;20047;-86
2021/06/07 04:35:43;;;;;;;27.77;21.13;;;;;;;12.11;100.00;101930.50;4983255;28;20059;-86
2021/06/07 04:38:08;;;;;;;26.40;21.40;;;;;;;12.19;100.00;101929.75;4983445;28;20545;-86
2021/06/07 04:40:36;;;;;;;24.10;19.98;;;;;;;12.24;100.00;101929.31;4965979;28;20051;-85
2021/06/07 04:43:09;;;;;;;24.70;20.40;;;;;;;12.29;100.00;101929.72;4967373;28;20249;-87
2021/06/07 04:45:36;;;;;;;23.75;20.02;;;;;;;12.32;100.00;101927.59;4976370;28;20583;-87
2021/06/07 04:48:01;;;;;;;27.73;19.58;;;;;;;12.37;100.00;101922.63;4978599;28;20078;-87
2021/06/07 04:50:30;;;;;;;23.63;18.65;;;;;;;12.41;100.00;101926.69;4977551;28;20142;-85
2021/06/07 04:53:00;;;;;;;25.70;18.98;;;;;;;12.41;100.00;101934.75;4978634;28;20064;-89
2021/06/07 04:55:32;;;;;;;20.70;17.10;;;;;;;12.44;100.00;101927.41;4984676;28;20112;-88
2021/06/07 04:57:59;;;;;;;23.10;18.40;;;;;;;12.57;100.00;101926.06;4984237;28;20038;-87
2021/06/07 05:00:26;;;;;;;22.13;17.20;;;;;;;12.50;100.00;101924.09;4987842;28;20058;-87
2021/06/07 05:02:51;;;;;;;22.23;17.25;;;;;;;12.59;100.00;101929.44;4979406;28;20054;-89
2021/06/07 05:05:19;;;;;;;21.02;16.50;;;;;;;12.57;100.00;101922.50;4971168;28;20049;-87
2021/06/07 05:07:44;;;;;;;20.05;16.48;;;;;;;12.69;100.00;101932.09;4977098;28;20054;-87
2021/06/07 05:10:10;;;;;;;19.30;15.73;;;;;;;12.75;100.00;101927.94;4962047;28;20124;-85
2021/06/07 05:12:36;;;;;;;23.02;16.13;;;;;;;12.80;100.00;101934.56;4979753;28;20382;-85
2021/06/07 05:15:03;;;;;;;22.02;15.93;;;;;;;12.87;100.00;101934.81;4982568;28;20088;-90
2021/06/07 05:17:28;;;;;;;18.25;15.10;;;;;;;12.96;100.00;101930.34;4976810;28;20489;-85
2021/06/07 05:19:54;;;;;;;18.48;14.57;;;;;;;13.00;100.00;101932.56;4975094;28;20127;-85
2021/06/07 05:22:20;;;;;;;17.75;14.60;;;;;;;13.04;100.00;101927.75;4976055;28;20061;-85
2021/06/07 05:24:46;;;;;;;16.63;13.90;;;;;;;13.09;100.00;101928.16;4977866;28;20050;-85
2021/06/07 05:27:12;;;;;;;16.75;14.25;;;;;;;13.25;100.00;101928.31;4974695;28;20073;-85
2021/06/07 05:29:37;;;;;;;17.25;13.23;;;;;;;13.37;100.00;101936.19;4972906;28;20058;-89
2021/06/07 05:32:03;;;;;;;13.82;12.10;;;;;;;13.45;98.88;101925.47;4967428;28;20457;-87
2021/06/07 05:34:29;;;;;;;15.68;13.00;;;;;;;13.57;98.17;101931.47;4974586;28;20145;-87
2021/06/07 05:36:54;;;;;;;14.55;12.18;;;;;;;13.42;98.80;101933.88;4956234;28;20400;-85
2021/06/07 05:39:20;;;;;;;15.95;12.73;;;;;;;13.43;98.45;101936.38;4973522;28;20110;-86
2021/06/07 05:41:46;;;;;;;16.50;13.35;;;;;;;13.43;98.82;101940.94;4976342;28;20504;-89
2021/06/07 05:44:12;;;;;;;16.67;12.70;;;;;;;13.35;98.68;101933.66;4985648;28;20129;-85
2021/06/07 05:46:38;;;;;;;16.55;13.27;;;;;;;13.49;99.01;101934.94;4978452;28;20062;-86
2021/06/07 05:49:04;;;;;;;18.10;12.93;;;;;;;13.51;98.24;101939.16;4988255;28;20569;-86
2021/06/07 05:51:29;;;;;;;16.02;12.85;;;;;;;13.43;98.82;101936.38;4948595;28;20057;-88
2021/06/07 05:53:55;;;;;;;17.30;12.85;;;;;;;13.51;98.25;101938.31;4980589;28;20564;-85
2021/06/07 05:56:20;;;;;;;16.08;13.00;;;;;;;13.44;98.36;101942.66;4981577;28;20046;-85
2021/06/07 05:58:45;;;;;;;15.88;12.60;;;;;;;13.43;98.75;101946.34;4989205;28;20401;-86
2021/06/07 06:01:11;;;;;;;16.50;12.95;;;;;;;13.60;99.22;101942.78;4988378;28;20051;-85
2021/06/07 06:03:36;;;;;;;17.98;13.60;;;;;;;13.60;98.86;101941.94;4989182;28;20121;-85
2021/06/07 06:06:01;;;;;;;17.80;12.68;;;;;;;13.66;98.13;101944.84;4986156;28;20062;-88
2021/06/07 06:08:27;;;;;;;14.60;12.30;;;;;;;13.69;97.98;101941.81;4979571;28;20469;-85
2021/06/07 06:10:52;;;;;;;15.57;12.38;;;;;;;13.65;97.45;101940.47;4988738;28;20511;-85
2021/06/07 06:13:18;;;;;;;14.15;11.30;;;;;;;13.75;97.28;101937.66;4969622;28;20054;-86
2021/06/07 06:15:44;;;;;;;13.85;11.52;;;;;;;13.81;96.30;101941.56;4974029;28;20512;-87
2021/06/07 06:18:10;;;;;;;15.38;11.20;;;;;;;13.91;96.43;101939.63;4971923;28;20097;-86
2021/06/07 06:20:38;;;;;;;14.93;11.77;;;;;;;14.05;95.90;101940.91;4976854;28;20137;-85
2021/06/07 06:23:04;;;;;;;13.45;10.73;;;;;;;13.96;95.52;101946.25;4982220;28;20043;-86
2021/06/07 06:25:29;;;;;;;14.77;11.45;;;;;;;13.97;96.05;101941.69;4958275;28;20096;-87
2021/06/07 06:27:57;;;;;;;15.18;11.35;;;;;;;13.99;95.55;101947.78;4984048;28;20485;-85
2021/06/07 06:30:28;;;;;;;14.63;11.05;;;;;;;14.04;95.47;101947.31;4964535;28;20042;-90
2021/06/07 06:32:59;;;;;;;20.05;11.82;;;;;;;14.11;95.02;101948.38;4975673;28;20204;-85
2021/06/07 06:35:27;;;;;;;13.82;10.77;;;;;;;14.12;94.36;101950.91;4978934;28;20141;-89
2021/06/07 06:37:52;;;;;;;13.27;10.80;;;;;;;13.99;95.05;101947.78;4982139;28;20126;-88
2021/06/07 06:40:26;;;;;;;12.52;9.85;;;;;;;14.09;94.99;101948.53;4989320;28;20137;-85
2021/06/07 06:42:54;;;;;;;15.00;10.60;;;;;;;14.28;94.77;101949.31;4984614;28;20716;-85
2021/06/07 06:45:20;;;;;;;13.57;10.77;;;;;;;14.28;93.99;101949.31;4975229;28;20050;-87
2021/06/07 06:47:46;;;;;;;14.27;10.38;;;;;;;14.33;93.71;101950.53;4970958;28;20116;-87
2021/06/07 06:50:13;;;;;;;14.18;10.65;;;;;;;14.47;93.03;101951.75;4987678;28;20500;-87
2021/06/07 06:52:40;;;;;;;14.95;10.45;;;;;;;14.58;92.16;101948.81;4979890;28;20050;-87
2021/06/07 06:55:06;;;;;;;13.65;9.88;;;;;;;14.66;92.47;101946.13;4970601;28;20062;-87
2021/06/07 06:57:34;;;;;;;14.23;10.13;;;;;;;14.71;91.39;101942.97;4977977;28;20111;-85
2021/06/07 06:59:59;;;;;;;14.35;10.50;;;;;;;14.73;91.14;101948.19;4989286;28;20129;-86
2021/06/07 07:02:25;;;;;;;12.48;9.50;;;;;;;14.83;90.75;101951.59;4988147;28;20145;-86
2021/06/07 07:04:50;;;;;;;12.45;9.65;;;;;;;14.84;90.62;101943.31;4966249;28;20054;-90
2021/06/07 07:07:18;;;;;;;13.23;9.65;;;;;;;14.88;90.97;101950.09;4982088;28;20042;-87
2021/06/07 07:09:46;;;;;;;11.95;9.50;;;;;;;14.91;90.83;101948.94;4983360;28;20137;-88
2021/06/07 07:12:12;;;;;;;11.77;9.73;;;;;;;14.97;90.14;101953.69;4978865;28;20060;-87
2021/06/07 07:14:38;;;;;;;12.63;9.52;;;;;;;15.01;90.08;101954.19;4946636;28;20756;-90
2021/06/07 07:17:04;;;;;;;14.30;10.05;;;;;;;15.11;89.76;101955.75;4975396;28;20129;-87
2021/06/07 07:19:29;;;;;;;12.82;9.05;;;;;;;15.22;89.63;101951.00;4980357;28;20153;-87
2021/06/07 07:21:56;;;;;;;11.90;9.13;;;;;;;15.31;88.55;101950.88;4982901;28;20092;-86
2021/06/07 07:24:22;;;;;;;12.35;9.32;;;;;;;15.43;88.85;101954.09;4979889;28;20520;-90
2021/06/07 07:26:47;;;;;;;11.82;9.13;;;;;;;15.53;87.41;101959.31;4996904;28;20054;-90
2021/06/07 07:29:12;;;;;;;12.38;9.18;;;;;;;15.61;87.50;101955.78;5002343;28;20050;-88
2021/06/07 07:31:39;;;;;;;11.18;8.73;;;;;;;15.66;86.63;101948.84;4992199;28;20146;-88
2021/06/07 07:34:04;;;;;;;11.40;9.50;;;;;;;15.68;86.84;101951.41;4990321;28;20100;-86
2021/06/07 07:36:30;;;;;;;11.43;8.30;;;;;;;15.76;86.82;101957.66;4980110;28;20489;-87
2021/06/07 07:38:58;;;;;;;9.20;8.13;;;;;;;15.82;85.75;101956.13;4981730;28;20401;-86
2021/06/07 07:41:25;;;;;;;12.65;8.98;;;;;;;15.85;84.76;101953.09;4959723;28;20043;-87
2021/06/07 07:43:50;;;;;;;12.40;9.50;;;;;;;15.74;84.17;101959.72;4986020;28;20367;-87
2021/06/07 07:46:16;;;;;;;12.32;8.75;;;;;;;15.72;85.23;101958.19;4985761;28;20062;-87
2021/06/07 07:48:41;;;;;;;13.38;9.55;;;;;;;15.67;84.03;101957.81;4987250;28;20641;-88
2021/06/07 07:51:07;;;;;;;11.93;9.10;;;;;;;15.75;85.04;101955.13;4979948;28;20072;-87
2021/06/07 07:53:32;;;;;;;12.85;9.13;;;;;;;15.91;84.39;101957.84;4986089;28;20045;-87
2021/06/07 07:55:58;;;;;;;10.05;8.05;;;;;;;15.88;82.28;101952.78;4987111;28;20050;-87
2021/06/07 07:58:24;;;;;;;9.40;7.88;;;;;;;15.84;84.43;101958.69;4986115;28;20042;-87
2021/06/07 08:00:49;;;;;;;12.85;8.90;;;;;;;15.78;84.36;101952.09;4982348;28;20068;-90
2021/06/07 08:03:16;;;;;;;10.95;8.80;;;;;;;15.88;83.51;101955.47;4975855;28;20043;-86
2021/06/07 08:05:42;;;;;;;11.40;8.32;;;;;;;15.88;82.89;101951.91;4965976;28;20349;-86
2021/06/07 08:08:10;;;;;;;12.77;8.15;;;;;;;16.03;82.57;101955.63;4982263;28;20042;-87
2021/06/07 08:10:35;;;;;;;8.52;7.63;;;;;;;16.16;82.43;101955.91;4979371;28;20172;-87
2021/06/07 08:13:02;;;;;;;9.30;7.43;;;;;;;16.23;80.92;101962.34;4960839;28;20445;-87
2021/06/07 08:15:29;;;;;;;10.55;8.05;;;;;;;16.15;81.36;101954.25;4981915;28;20042;-87
2021/06/07 08:17:56;;;;;;;9.98;6.97;;;;;;;16.20;81.02;101960.00;4982707;28;20062;-87
2021/06/07 08:20:22;;;;;;;10.57;6.70;;;;;;;16.30;80.64;101959.78;4977966;28;20179;-88
2021/06/07 08:22:50;;;;;;;9.48;5.80;;;;;;;16.25;79.63;101962.16;4978367;28;20038;-86
2021/06/07 08:25:17;;;;;;;9.13;6.32;;;;;;;16.31;80.20;101957.91;4979459;28;20050;-87
2021/06/07 08:27:43;;;;;;;9.73;6.90;;;;;;;16.46;79.25;101967.03;4975747;28;20500;-86
2021/06/07 08:30:10;;;;;;;11.93;6.05;;;;;;;16.52;77.73;101965.50;4977979;28;20049;-86
2021/06/07 08:32:36;;;;;;;7.70;5.00;;;;;;;16.52;75.63;101970.91;4974345;28;20038;-87
2021/06/07 08:35:04;;;;;;;7.50;5.15;;;;;;;16.58;77.03;101971.03;4983902;28;20542;-88
2021/06/07 08:37:29;;;;;;;6.55;5.10;;;;;;;16.57;76.58;101966.66;4964989;28;20762;-89
2021/06/07 08:39:54;;;;;;;8.35;5.00;;;;;;;16.65;75.92;101965.75;4950094;28;20051;-87
2021/06/07 08:42:20;;;;;;;7.93;5.10;;;;;;;16.62;74.42;101969.66;4965057;28;20047;-87
2021/06/07 08:44:45;;;;;;;6.40;4.70;;;;;;;16.72;75.03;101960.50;4965702;28;20569;-88
2021/06/07 08:47:11;;;;;;;7.28;4.68;;;;;;;16.76;74.26;101961.81;4975800;28;20039;-86
2021/06/07 08:49:37;;;;;;;8.02;5.07;;;;;;;16.70;74.73;101958.78;4976795;28;20112;-89
2021/06/07 08:52:06;;;;;;;6.28;4.30;;;;;;;16.68;74.17;101974.38;4975187;28;20045;-87
2021/06/07 08:54:32;;;;;;;5.78;3.78;;;;;;;16.69;73.45;101972.53;4973600;28;20528;-88
2021/06/07 08:56:59;;;;;;;5.82;3.53;;;;;;;16.72;73.14;101960.50;4966340;28;20133;-89
2021/06/07 08:59:24;;;;;;;5.72;3.45;;;;;;;16.71;70.65;101967.75;4968711;28;20050;-89
2021/06/07 09:01:55;;;;;;;4.53;3.40;;;;;;;16.83;71.08;101970.94;4980916;28;20054;-89
2021/06/07 09:04:23;;;;;;;5.22;3.20;;;;;;;16.82;72.16;101961.97;4976325;28;20049;-90
2021/06/07 09:06:50;;;;;;;5.95;3.53;;;;;;;16.88;71.06;101955.84;4981716;28;20078;-86
2021/06/07 09:09:21;;;;;;;5.43;2.90;;;;;;;16.88;69.14;101968.56;4980031;28;20050;-86
2021/06/07 09:11:58;;;;;;;6.95;3.38;;;;;;;16.93;71.56;101968.88;4969311;28;20145;-90
2021/06/07 09:14:31;;;;;;;5.80;2.55;;;;;;;17.03;70.00;101968.66;4990171;28;20138;-88
2021/06/07 09:16:58;;;;;;;5.65;2.40;;;;;;;17.22;69.27;101968.19;4985835;28;20125;-89
2021/06/07 09:19:26;;;;;;;6.30;2.63;;;;;;;17.17;69.33;101965.16;4979537;28;20101;-87
2021/06/07 09:21:55;;;;;;;5.32;2.80;;;;;;;17.31;69.40;101971.69;4962799;28;20145;-88
2021/06/07 09:24:20;;;;;;;5.22;2.55;;;;;;;17.51;68.06;101966.63;4980955;28;20050;-88
2021/06/07 09:26:49;;;;;;;4.07;2.10;;;;;;;17.50;68.30;101968.50;4967889;28;20121;-88
2021/06/07 09:29:23;;;;;;;4.13;1.83;;;;;;;17.66;65.04;101975.66;4960179;28;20062;-89
2021/06/07 09:31:54;;;;;;;4.90;1.73;;;;;;;17.84;63.88;101969.97;4960172;28;20190;-87
2021/06/07 09:34:24;;;;;;;3.95;1.60;;;;;;;17.98;64.83;101965.56;4955721;28;20129;-90
2021/06/07 09:36:51;;;;;;;3.70;1.70;;;;;;;17.93;64.15;101968.00;4966929;28;20130;-88
2021/06/07 09:39:23;;;;;;;2.85;1.50;;;;;;;17.97;64.09;101966.59;4960539;28;20534;-88
2021/06/07 09:41:56;;;;;;;4.13;1.30;;;;;;;18.15;60.80;101968.97;4963705;28;20051;-86
2021/06/07 09:44:31;;;;;;;5.55;1.38;;;;;;;18.32;59.36;101972.34;4960013;28;20493;-88
2021/06/07 09:47:13;;;;;;;3.50;1.30;;;;;;;18.34;60.93;101967.59;4958186;28;20055;-87
2021/06/07 09:49:48;;;;;;;3.15;1.40;;;;;;;18.57;59.37;101967.50;4947589;28;20043;-87
2021/06/07 09:52:18;;;;;;;3.95;1.38;;;;;;;18.86;57.75;101966.63;4962288;28;20050;-87
2021/06/07 09:54:44;;;;;;;3.25;1.30;;;;;;;18.98;60.80;101958.81;4932411;28;20055;-88
2021/06/07 09:57:09;;;;;;;5.43;1.40;;;;;;;18.89;60.17;101963.53;4921610;28;20043;-91
2021/06/07 09:59:38;;;;;;;3.10;1.40;;;;;;;19.00;55.69;101967.63;4919749;28;20039;-88
2021/06/07 10:02:19;;;;;;;4.03;1.67;;;;;;;19.04;55.65;101961.59;4940577;28;20051;-89
2021/06/07 10:04:55;;;;;;;4.53;1.40;;;;;;;19.28;58.83;101965.03;4919534;28;20087;-89
2021/06/07 10:07:22;;;;;;;3.28;1.50;;;;;;;19.38;56.29;101965.53;4888427;29;20917;-87
2021/06/07 10:13:12;;;;;;;3.75;1.40;;;;;;;19.38;53.02;101962.81;5075772;27;20213;-84
2021/06/07 10:15:44;;;;;;;1.85;1.15;;;;;;;19.28;55.34;101956.88;5026792;28;20482;-84
2021/06/07 10:18:15;;;;;;;4.18;1.63;;;;;;;19.43;56.19;101957.63;5017282;28;20045;-84
2021/06/07 10:20:51;;;;;;;3.92;1.58;;;;;;;19.68;54.92;101954.53;5049546;28;20119;-85
2021/06/07 10:23:28;;;;;;;3.33;1.95;;;;;;;19.77;55.16;101946.03;5032764;28;20058;-84
2021/06/07 10:25:55;;;;;;;3.22;1.90;;;;;;;19.92;54.98;101945.94;5049539;28;20450;-85
2021/06/07 10:28:30;;;;;;;3.03;1.88;;;;;;;19.83;53.82;101953.41;5018796;28;20049;-85
2021/06/07 10:30:57;;;;;;;2.65;1.63;;;;;;;19.70;54.62;101936.94;5050722;28;20076;-85
2021/06/07 10:33:34;;;;;;;4.40;1.73;;;;;;;19.80;55.57;101942.06;5033388;28;20063;-86
2021/06/07 10:36:21;;;;;;;3.88;1.85;;;;;;;19.97;50.87;101942.63;5040023;28;20044;-85
2021/06/07 10:38:49;;;;;;;3.70;1.45;;;;;;;20.05;54.96;101945.16;5021849;28;20095;-85
2021/06/07 10:41:19;;;;;;;3.42;1.83;;;;;;;20.29;54.92;101946.59;5039675;28;20091;-86
2021/06/07 10:43:47;;;;;;;4.57;2.20;;;;;;;20.42;52.35;101951.28;5027962;28;20045;-84
2021/06/07 10:46:43;;;;;;;2.60;1.75;;;;;;;20.25;54.22;101939.84;5030642;28;20041;-84
2021/06/07 10:49:36;;;;;;;3.22;2.10;;;;;;;20.58;54.76;101933.78;5020453;28;20042;-84
2021/06/07 10:52:27;;;;;;;4.07;2.10;;;;;;;20.49;51.27;101939.38;5020927;28;20057;-85
2021/06/07 10:55:08;;;;;;;4.07;2.10;;;;;;;20.55;53.60;101934.19;5017531;28;20064;-85
2021/06/07 10:57:46;;;;;;;4.63;2.45;;;;;;;20.80;48.61;101938.06;5038861;28;20053;-85
2021/06/07 11:00:32;;;;;;;3.50;1.90;;;;;;;20.71;53.92;101942.88;5041038;28;20037;-84
2021/06/07 11:03:04;;;;;;;5.55;3.50;;;;;;;20.84;50.73;101933.88;5039692;28;20045;-85
2021/06/07 11:05:33;;;;;;;3.65;2.58;;;;;;;20.73;53.68;101934.47;5028511;28;20034;-85
2021/06/07 11:08:00;;;;;;;;;;;;;;;21.05;53.63;101919.25;5020831;28;20057;-84
2021/06/07 11:10:31;;;;;;;7.32;2.90;;;;;;;20.98;52.34;101928.47;5018774;28;20353;-85
2021/06/07 11:13:04;;;;;;;3.72;3.17;;;;;;;20.67;51.92;101935.28;5030963;28;20418;-85
2021/06/07 11:15:35;;;;;;;5.35;2.97;;;;;;;20.83;52.95;101923.16;5020200;28;20037;-85
2021/06/07 11:18:22;;;;;;;4.40;2.95;;;;;;;20.81;53.61;101920.66;5020819;28;20045;-85